sensor_id;sensor_type;location;lat;lon;timestamp;P1;durP1;ratioP1;P2;durP2;ratioP2
68886;SDS011;55925;51.764;6.402;2023-05-29T00:02:17;11.30;;;4.53;;
68886;SDS011;55925;51.764;6.402;2023-05-29T00:04:43;11.85;;;4.40;;
68886;SDS011;55925;51.764;6.402;2023-05-29T00:07:09;10.35;;;4.50;;
68886;SDS011;55925;51.764;6.402;2023-05-29T00:09:35;10.95;;;3.78;;
68886;SDS011;55925;51.764;6.402;2023-05-29T00:12:01;10.10;;;3.65;;
68886;SDS011;55925;51.764;6.402;2023-05-29T00:14:27;13.55;;;4.60;;
68886;SDS011;55925;51.764;6.402;2023-05-29T00:16:53;15.23;;;4.28;;
68886;SDS011;55925;51.764;6.402;2023-05-29T00:19:19;15.57;;;4.43;;
68886;SDS011;55925;51.764;6.402;2023-05-29T00:21:46;12.75;;;3.50;;
68886;SDS011;55925;51.764;6.402;2023-05-29T00:24:14;12.32;;;3.90;;
68886;SDS011;55925;51.764;6.402;2023-05-29T00:26:40;10.38;;;3.53;;
68886;SDS011;55925;51.764;6.402;2023-05-29T00:29:06;8.93;;;3.42;;
68886;SDS011;55925;51.764;6.402;2023-05-29T00:31:32;11.65;;;3.33;;
68886;SDS011;55925;51.764;6.402;2023-05-29T00:33:58;18.05;;;3.85;;
68886;SDS011;55925;51.764;6.402;2023-05-29T00:36:25;13.05;;;3.47;;
68886;SDS011;55925;51.764;6.402;2023-05-29T00:38:53;11.90;;;3.10;;
68886;SDS011;55925;51.764;6.402;2023-05-29T00:41:19;11.40;;;3.28;;
68886;SDS011;55925;51.764;6.402;2023-05-29T00:43:45;11.40;;;2.97;;
68886;SDS011;55925;51.764;6.402;2023-05-29T00:46:12;13.48;;;3.58;;
68886;SDS011;55925;51.764;6.402;2023-05-29T00:48:39;15.65;;;3.33;;
68886;SDS011;55925;51.764;6.402;2023-05-29T00:51:06;10.23;;;3.00;;
68886;SDS011;55925;51.764;6.402;2023-05-29T00:53:32;9.80;;;2.63;;
68886;SDS011;55925;51.764;6.402;2023-05-29T00:55:58;9.98;;;2.95;;
68886;SDS011;55925;51.764;6.402;2023-05-29T00:58:25;15.40;;;2.85;;
68886;SDS011;55925;51.764;6.402;2023-05-29T01:00:51;10.10;;;2.95;;
68886;SDS011;55925;51.764;6.402;2023-05-29T01:03:18;14.38;;;3.00;;
68886;SDS011;55925;51.764;6.402;2023-05-29T01:05:45;14.80;;;2.83;;
68886;SDS011;55925;51.764;6.402;2023-05-29T01:08:11;13.43;;;2.97;;
68886;SDS011;55925;51.764;6.402;2023-05-29T01:10:38;15.43;;;3.20;;
68886;SDS011;55925;51.764;6.402;2023-05-29T01:13:21;11.73;;;3.08;;
68886;SDS011;55925;51.764;6.402;2023-05-29T01:18:45;11.95;;;3.33;;
68886;SDS011;55925;51.764;6.402;2023-05-29T01:21:24;13.32;;;2.80;;
68886;SDS011;55925;51.764;6.402;2023-05-29T01:23:52;14.18;;;2.88;;
68886;SDS011;55925;51.764;6.402;2023-05-29T01:29:04;9.10;;;2.55;;
68886;SDS011;55925;51.764;6.402;2023-05-29T01:31:32;12.55;;;2.55;;
68886;SDS011;55925;51.764;6.402;2023-05-29T01:33:58;12.88;;;2.60;;
68886;SDS011;55925;51.764;6.402;2023-05-29T01:36:26;13.65;;;2.58;;
68886;SDS011;55925;51.764;6.402;2023-05-29T01:38:52;11.40;;;2.28;;
68886;SDS011;55925;51.764;6.402;2023-05-29T01:41:19;10.90;;;2.63;;
68886;SDS011;55925;51.764;6.402;2023-05-29T01:43:46;13.68;;;3.45;;
68886;SDS011;55925;51.764;6.402;2023-05-29T01:46:13;12.27;;;2.95;;
68886;SDS011;55925;51.764;6.402;2023-05-29T01:48:43;13.77;;;2.70;;
68886;SDS011;55925;51.764;6.402;2023-05-29T01:51:10;12.23;;;3.47;;
68886;SDS011;55925;51.764;6.402;2023-05-29T01:53:36;12.25;;;2.70;;
68886;SDS011;55925;51.764;6.402;2023-05-29T01:56:03;10.70;;;3.08;;
68886;SDS011;55925;51.764;6.402;2023-05-29T01:58:29;14.27;;;3.40;;
68886;SDS011;55925;51.764;6.402;2023-05-29T02:00:57;7.45;;;2.55;;
68886;SDS011;55925;51.764;6.402;2023-05-29T02:03:23;13.98;;;3.33;;
68886;SDS011;55925;51.764;6.402;2023-05-29T02:05:49;13.88;;;4.00;;
68886;SDS011;55925;51.764;6.402;2023-05-29T02:08:15;10.10;;;2.42;;
68886;SDS011;55925;51.764;6.402;2023-05-29T02:10:41;13.88;;;2.63;;
68886;SDS011;55925;51.764;6.402;2023-05-29T02:13:07;17.60;;;3.70;;
68886;SDS011;55925;51.764;6.402;2023-05-29T02:15:33;12.43;;;2.90;;
68886;SDS011;55925;51.764;6.402;2023-05-29T02:18:00;10.45;;;2.47;;
68886;SDS011;55925;51.764;6.402;2023-05-29T02:20:26;11.90;;;2.60;;
68886;SDS011;55925;51.764;6.402;2023-05-29T02:22:52;11.18;;;2.60;;
68886;SDS011;55925;51.764;6.402;2023-05-29T02:25:18;15.50;;;3.10;;
68886;SDS011;55925;51.764;6.402;2023-05-29T02:27:44;12.07;;;2.67;;
68886;SDS011;55925;51.764;6.402;2023-05-29T02:30:10;16.80;;;3.55;;
68886;SDS011;55925;51.764;6.402;2023-05-29T02:32:36;13.68;;;3.65;;
68886;SDS011;55925;51.764;6.402;2023-05-29T02:35:02;11.63;;;3.35;;
68886;SDS011;55925;51.764;6.402;2023-05-29T02:37:29;11.98;;;2.92;;
68886;SDS011;55925;51.764;6.402;2023-05-29T02:39:55;13.02;;;2.80;;
68886;SDS011;55925;51.764;6.402;2023-05-29T02:42:21;15.05;;;3.20;;
68886;SDS011;55925;51.764;6.402;2023-05-29T02:44:47;16.48;;;3.35;;
68886;SDS011;55925;51.764;6.402;2023-05-29T02:47:12;11.70;;;3.35;;
68886;SDS011;55925;51.764;6.402;2023-05-29T02:49:38;13.95;;;2.90;;
68886;SDS011;55925;51.764;6.402;2023-05-29T02:52:05;10.95;;;2.75;;
68886;SDS011;55925;51.764;6.402;2023-05-29T02:54:31;12.60;;;3.45;;
68886;SDS011;55925;51.764;6.402;2023-05-29T02:56:57;10.48;;;2.85;;
68886;SDS011;55925;51.764;6.402;2023-05-29T02:59:23;15.35;;;3.75;;
68886;SDS011;55925;51.764;6.402;2023-05-29T03:01:49;14.95;;;3.47;;
68886;SDS011;55925;51.764;6.402;2023-05-29T03:04:15;15.95;;;3.17;;
68886;SDS011;55925;51.764;6.402;2023-05-29T03:06:42;17.17;;;3.40;;
68886;SDS011;55925;51.764;6.402;2023-05-29T03:09:08;19.88;;;3.88;;
68886;SDS011;55925;51.764;6.402;2023-05-29T03:11:34;17.10;;;3.30;;
68886;SDS011;55925;51.764;6.402;2023-05-29T03:14:01;12.63;;;3.22;;
68886;SDS011;55925;51.764;6.402;2023-05-29T03:16:28;31.48;;;3.55;;
68886;SDS011;55925;51.764;6.402;2023-05-29T03:18:55;17.25;;;3.22;;
68886;SDS011;55925;51.764;6.402;2023-05-29T03:21:20;14.27;;;3.25;;
68886;SDS011;55925;51.764;6.402;2023-05-29T03:23:47;13.77;;;2.90;;
68886;SDS011;55925;51.764;6.402;2023-05-29T03:26:13;12.85;;;2.80;;
68886;SDS011;55925;51.764;6.402;2023-05-29T03:28:39;17.33;;;3.35;;
68886;SDS011;55925;51.764;6.402;2023-05-29T03:31:05;17.17;;;4.68;;
68886;SDS011;55925;51.764;6.402;2023-05-29T03:33:32;14.50;;;3.20;;
68886;SDS011;55925;51.764;6.402;2023-05-29T03:35:59;13.77;;;3.28;;
68886;SDS011;55925;51.764;6.402;2023-05-29T03:38:25;12.98;;;3.53;;
68886;SDS011;55925;51.764;6.402;2023-05-29T03:40:51;13.63;;;3.05;;
68886;SDS011;55925;51.764;6.402;2023-05-29T03:43:17;15.43;;;4.05;;
68886;SDS011;55925;51.764;6.402;2023-05-29T03:45:43;16.58;;;2.70;;
68886;SDS011;55925;51.764;6.402;2023-05-29T03:48:09;16.45;;;3.25;;
68886;SDS011;55925;51.764;6.402;2023-05-29T03:50:35;10.13;;;2.83;;
68886;SDS011;55925;51.764;6.402;2023-05-29T03:53:01;13.75;;;2.92;;
68886;SDS011;55925;51.764;6.402;2023-05-29T03:55:27;11.90;;;2.45;;
68886;SDS011;55925;51.764;6.402;2023-05-29T03:57:53;8.55;;;2.83;;
68886;SDS011;55925;51.764;6.402;2023-05-29T04:00:19;15.93;;;3.35;;
68886;SDS011;55925;51.764;6.402;2023-05-29T04:02:45;11.85;;;2.80;;
68886;SDS011;55925;51.764;6.402;2023-05-29T04:05:11;11.43;;;2.63;;
68886;SDS011;55925;51.764;6.402;2023-05-29T04:07:38;16.55;;;3.13;;
68886;SDS011;55925;51.764;6.402;2023-05-29T04:10:04;14.05;;;3.38;;
68886;SDS011;55925;51.764;6.402;2023-05-29T04:12:31;8.55;;;3.35;;
68886;SDS011;55925;51.764;6.402;2023-05-29T04:14:57;10.38;;;2.90;;
68886;SDS011;55925;51.764;6.402;2023-05-29T04:17:23;14.70;;;3.22;;
68886;SDS011;55925;51.764;6.402;2023-05-29T04:19:49;12.02;;;2.75;;
68886;SDS011;55925;51.764;6.402;2023-05-29T04:22:15;15.88;;;2.90;;
68886;SDS011;55925;51.764;6.402;2023-05-29T04:24:41;9.02;;;2.40;;
68886;SDS011;55925;51.764;6.402;2023-05-29T04:27:10;10.13;;;2.63;;
68886;SDS011;55925;51.764;6.402;2023-05-29T04:29:41;11.00;;;2.90;;
68886;SDS011;55925;51.764;6.402;2023-05-29T04:32:10;13.10;;;3.22;;
68886;SDS011;55925;51.764;6.402;2023-05-29T04:34:37;12.27;;;2.95;;
68886;SDS011;55925;51.764;6.402;2023-05-29T04:37:04;13.77;;;2.67;;
68886;SDS011;55925;51.764;6.402;2023-05-29T04:39:30;11.65;;;2.70;;
68886;SDS011;55925;51.764;6.402;2023-05-29T04:41:56;15.57;;;3.08;;
68886;SDS011;55925;51.764;6.402;2023-05-29T04:44:24;10.82;;;2.70;;
68886;SDS011;55925;51.764;6.402;2023-05-29T04:46:51;16.60;;;3.03;;
68886;SDS011;55925;51.764;6.402;2023-05-29T04:49:17;11.30;;;2.85;;
68886;SDS011;55925;51.764;6.402;2023-05-29T04:51:44;13.30;;;2.55;;
68886;SDS011;55925;51.764;6.402;2023-05-29T04:54:11;12.05;;;2.60;;
68886;SDS011;55925;51.764;6.402;2023-05-29T04:56:37;11.55;;;2.50;;
68886;SDS011;55925;51.764;6.402;2023-05-29T04:59:05;9.40;;;2.40;;
68886;SDS011;55925;51.764;6.402;2023-05-29T05:01:31;12.48;;;2.20;;
68886;SDS011;55925;51.764;6.402;2023-05-29T05:03:58;14.10;;;3.10;;
68886;SDS011;55925;51.764;6.402;2023-05-29T05:06:24;11.70;;;2.53;;
68886;SDS011;55925;51.764;6.402;2023-05-29T05:08:51;10.65;;;2.58;;
68886;SDS011;55925;51.764;6.402;2023-05-29T05:11:22;14.73;;;2.88;;
68886;SDS011;55925;51.764;6.402;2023-05-29T05:13:48;15.48;;;2.60;;
68886;SDS011;55925;51.764;6.402;2023-05-29T05:16:14;12.63;;;3.45;;
68886;SDS011;55925;51.764;6.402;2023-05-29T05:18:41;15.45;;;3.00;;
68886;SDS011;55925;51.764;6.402;2023-05-29T05:21:07;11.15;;;2.55;;
68886;SDS011;55925;51.764;6.402;2023-05-29T05:23:33;8.88;;;2.78;;
68886;SDS011;55925;51.764;6.402;2023-05-29T05:25:59;13.07;;;2.83;;
68886;SDS011;55925;51.764;6.402;2023-05-29T05:28:25;11.80;;;2.70;;
68886;SDS011;55925;51.764;6.402;2023-05-29T05:30:51;11.95;;;2.50;;
68886;SDS011;55925;51.764;6.402;2023-05-29T05:33:17;12.57;;;2.45;;
68886;SDS011;55925;51.764;6.402;2023-05-29T05:35:43;17.00;;;3.30;;
68886;SDS011;55925;51.764;6.402;2023-05-29T05:38:09;14.35;;;2.60;;
68886;SDS011;55925;51.764;6.402;2023-05-29T05:40:35;11.52;;;2.50;;
68886;SDS011;55925;51.764;6.402;2023-05-29T05:43:01;10.05;;;2.30;;
68886;SDS011;55925;51.764;6.402;2023-05-29T05:45:27;13.05;;;2.80;;
68886;SDS011;55925;51.764;6.402;2023-05-29T05:47:53;20.10;;;3.22;;
68886;SDS011;55925;51.764;6.402;2023-05-29T05:50:19;12.05;;;2.40;;
68886;SDS011;55925;51.764;6.402;2023-05-29T05:52:46;9.95;;;2.33;;
68886;SDS011;55925;51.764;6.402;2023-05-29T05:55:12;11.18;;;3.05;;
68886;SDS011;55925;51.764;6.402;2023-05-29T05:57:38;13.07;;;2.50;;
68886;SDS011;55925;51.764;6.402;2023-05-29T06:00:04;14.98;;;2.50;;
68886;SDS011;55925;51.764;6.402;2023-05-29T06:02:37;10.65;;;3.53;;
68886;SDS011;55925;51.764;6.402;2023-05-29T06:05:06;12.98;;;2.60;;
68886;SDS011;55925;51.764;6.402;2023-05-29T06:07:32;10.02;;;2.30;;
68886;SDS011;55925;51.764;6.402;2023-05-29T06:09:58;13.63;;;2.42;;
68886;SDS011;55925;51.764;6.402;2023-05-29T06:12:24;11.05;;;2.38;;
68886;SDS011;55925;51.764;6.402;2023-05-29T06:14:50;8.32;;;2.53;;
68886;SDS011;55925;51.764;6.402;2023-05-29T06:17:16;10.15;;;2.40;;
68886;SDS011;55925;51.764;6.402;2023-05-29T06:19:42;10.52;;;2.60;;
68886;SDS011;55925;51.764;6.402;2023-05-29T06:22:08;13.82;;;3.15;;
68886;SDS011;55925;51.764;6.402;2023-05-29T06:24:34;13.57;;;2.30;;
68886;SDS011;55925;51.764;6.402;2023-05-29T06:27:00;12.18;;;2.50;;
68886;SDS011;55925;51.764;6.402;2023-05-29T06:29:26;11.55;;;2.63;;
68886;SDS011;55925;51.764;6.402;2023-05-29T06:31:52;10.13;;;2.40;;
68886;SDS011;55925;51.764;6.402;2023-05-29T06:34:18;13.35;;;1.95;;
68886;SDS011;55925;51.764;6.402;2023-05-29T06:36:44;12.18;;;2.40;;
68886;SDS011;55925;51.764;6.402;2023-05-29T06:39:11;12.95;;;2.58;;
68886;SDS011;55925;51.764;6.402;2023-05-29T06:41:37;11.80;;;2.53;;
68886;SDS011;55925;51.764;6.402;2023-05-29T06:44:03;12.85;;;2.45;;
68886;SDS011;55925;51.764;6.402;2023-05-29T06:46:29;8.98;;;2.47;;
68886;SDS011;55925;51.764;6.402;2023-05-29T06:48:55;17.73;;;2.42;;
68886;SDS011;55925;51.764;6.402;2023-05-29T06:51:21;13.18;;;2.10;;
68886;SDS011;55925;51.764;6.402;2023-05-29T06:53:47;10.27;;;2.20;;
68886;SDS011;55925;51.764;6.402;2023-05-29T06:56:13;12.30;;;2.65;;
68886;SDS011;55925;51.764;6.402;2023-05-29T06:58:39;13.13;;;2.67;;
68886;SDS011;55925;51.764;6.402;2023-05-29T07:01:05;10.07;;;2.00;;
68886;SDS011;55925;51.764;6.402;2023-05-29T07:03:32;12.35;;;2.80;;
68886;SDS011;55925;51.764;6.402;2023-05-29T07:05:58;11.80;;;2.85;;
68886;SDS011;55925;51.764;6.402;2023-05-29T07:08:24;10.02;;;2.33;;
68886;SDS011;55925;51.764;6.402;2023-05-29T07:10:50;11.95;;;2.17;;
68886;SDS011;55925;51.764;6.402;2023-05-29T07:13:16;10.45;;;2.38;;
68886;SDS011;55925;51.764;6.402;2023-05-29T07:15:43;9.15;;;2.50;;
68886;SDS011;55925;51.764;6.402;2023-05-29T07:18:09;10.40;;;2.13;;
68886;SDS011;55925;51.764;6.402;2023-05-29T07:20:36;9.18;;;2.53;;
68886;SDS011;55925;51.764;6.402;2023-05-29T07:23:02;10.85;;;2.20;;
68886;SDS011;55925;51.764;6.402;2023-05-29T07:25:29;14.52;;;2.92;;
68886;SDS011;55925;51.764;6.402;2023-05-29T07:27:55;16.63;;;2.88;;
68886;SDS011;55925;51.764;6.402;2023-05-29T07:30:21;8.18;;;2.15;;
68886;SDS011;55925;51.764;6.402;2023-05-29T07:32:47;10.02;;;1.95;;
68886;SDS011;55925;51.764;6.402;2023-05-29T07:35:13;8.93;;;2.30;;
68886;SDS011;55925;51.764;6.402;2023-05-29T07:37:39;10.77;;;2.70;;
68886;SDS011;55925;51.764;6.402;2023-05-29T07:40:05;11.13;;;2.38;;
68886;SDS011;55925;51.764;6.402;2023-05-29T07:42:31;10.15;;;2.80;;
68886;SDS011;55925;51.764;6.402;2023-05-29T07:44:58;11.95;;;2.50;;
68886;SDS011;55925;51.764;6.402;2023-05-29T07:47:24;12.38;;;2.55;;
68886;SDS011;55925;51.764;6.402;2023-05-29T07:49:50;10.55;;;2.47;;
68886;SDS011;55925;51.764;6.402;2023-05-29T07:52:17;17.15;;;2.58;;
68886;SDS011;55925;51.764;6.402;2023-05-29T07:54:43;10.20;;;2.20;;
68886;SDS011;55925;51.764;6.402;2023-05-29T07:57:09;15.48;;;2.80;;
68886;SDS011;55925;51.764;6.402;2023-05-29T07:59:36;12.70;;;2.92;;
68886;SDS011;55925;51.764;6.402;2023-05-29T08:02:02;7.57;;;1.98;;
68886;SDS011;55925;51.764;6.402;2023-05-29T08:04:29;8.88;;;2.13;;
68886;SDS011;55925;51.764;6.402;2023-05-29T08:06:55;10.68;;;2.10;;
68886;SDS011;55925;51.764;6.402;2023-05-29T08:09:21;11.32;;;2.10;;
68886;SDS011;55925;51.764;6.402;2023-05-29T08:11:47;13.23;;;2.75;;
68886;SDS011;55925;51.764;6.402;2023-05-29T08:14:13;10.32;;;2.20;;
68886;SDS011;55925;51.764;6.402;2023-05-29T08:16:43;12.98;;;2.35;;
68886;SDS011;55925;51.764;6.402;2023-05-29T08:19:09;10.68;;;2.70;;
68886;SDS011;55925;51.764;6.402;2023-05-29T08:21:35;9.13;;;2.05;;
68886;SDS011;55925;51.764;6.402;2023-05-29T08:24:03;10.23;;;2.47;;
68886;SDS011;55925;51.764;6.402;2023-05-29T08:26:32;10.13;;;2.15;;
68886;SDS011;55925;51.764;6.402;2023-05-29T08:28:58;8.98;;;2.22;;
68886;SDS011;55925;51.764;6.402;2023-05-29T08:31:24;14.95;;;2.55;;
68886;SDS011;55925;51.764;6.402;2023-05-29T08:33:50;9.80;;;2.10;;
68886;SDS011;55925;51.764;6.402;2023-05-29T08:36:17;10.02;;;2.20;;
68886;SDS011;55925;51.764;6.402;2023-05-29T08:38:45;11.15;;;2.80;;
68886;SDS011;55925;51.764;6.402;2023-05-29T08:41:13;9.25;;;2.08;;
68886;SDS011;55925;51.764;6.402;2023-05-29T08:46:09;10.50;;;2.28;;
68886;SDS011;55925;51.764;6.402;2023-05-29T08:48:35;10.98;;;2.00;;
68886;SDS011;55925;51.764;6.402;2023-05-29T08:51:04;11.38;;;2.33;;
68886;SDS011;55925;51.764;6.402;2023-05-29T08:53:31;7.30;;;2.50;;
68886;SDS011;55925;51.764;6.402;2023-05-29T08:55:57;9.50;;;2.45;;
68886;SDS011;55925;51.764;6.402;2023-05-29T08:58:24;12.23;;;2.60;;
68886;SDS011;55925;51.764;6.402;2023-05-29T09:00:50;9.13;;;2.88;;
68886;SDS011;55925;51.764;6.402;2023-05-29T09:03:16;12.23;;;2.78;;
68886;SDS011;55925;51.764;6.402;2023-05-29T09:05:42;10.38;;;2.45;;
68886;SDS011;55925;51.764;6.402;2023-05-29T09:08:09;8.43;;;2.20;;
68886;SDS011;55925;51.764;6.402;2023-05-29T09:10:37;9.25;;;2.33;;
68886;SDS011;55925;51.764;6.402;2023-05-29T09:13:04;7.18;;;1.77;;
68886;SDS011;55925;51.764;6.402;2023-05-29T09:15:31;12.60;;;2.35;;
68886;SDS011;55925;51.764;6.402;2023-05-29T09:17:57;8.55;;;2.53;;
68886;SDS011;55925;51.764;6.402;2023-05-29T09:20:24;8.18;;;2.25;;
68886;SDS011;55925;51.764;6.402;2023-05-29T09:22:54;8.90;;;1.80;;
68886;SDS011;55925;51.764;6.402;2023-05-29T09:25:21;10.98;;;2.40;;
68886;SDS011;55925;51.764;6.402;2023-05-29T09:27:55;8.70;;;2.17;;
68886;SDS011;55925;51.764;6.402;2023-05-29T09:33:00;10.55;;;2.28;;
68886;SDS011;55925;51.764;6.402;2023-05-29T09:38:23;8.70;;;2.13;;
68886;SDS011;55925;51.764;6.402;2023-05-29T09:40:49;7.85;;;2.63;;
68886;SDS011;55925;51.764;6.402;2023-05-29T09:43:15;11.85;;;2.50;;
68886;SDS011;55925;51.764;6.402;2023-05-29T09:45:43;10.27;;;2.63;;
68886;SDS011;55925;51.764;6.402;2023-05-29T09:48:13;8.43;;;2.03;;
68886;SDS011;55925;51.764;6.402;2023-05-29T09:50:39;8.48;;;2.03;;
68886;SDS011;55925;51.764;6.402;2023-05-29T09:55:44;9.57;;;2.20;;
68886;SDS011;55925;51.764;6.402;2023-05-29T09:58:11;11.75;;;2.50;;
68886;SDS011;55925;51.764;6.402;2023-05-29T10:00:39;9.70;;;2.63;;
68886;SDS011;55925;51.764;6.402;2023-05-29T10:03:06;11.32;;;2.72;;
68886;SDS011;55925;51.764;6.402;2023-05-29T10:05:32;9.07;;;2.42;;
68886;SDS011;55925;51.764;6.402;2023-05-29T10:07:58;10.77;;;2.65;;
68886;SDS011;55925;51.764;6.402;2023-05-29T10:10:27;9.23;;;2.20;;
68886;SDS011;55925;51.764;6.402;2023-05-29T10:12:53;11.93;;;2.15;;
68886;SDS011;55925;51.764;6.402;2023-05-29T10:15:19;11.05;;;2.30;;
68886;SDS011;55925;51.764;6.402;2023-05-29T10:17:50;7.75;;;2.53;;
68886;SDS011;55925;51.764;6.402;2023-05-29T10:20:17;10.18;;;2.58;;
68886;SDS011;55925;51.764;6.402;2023-05-29T10:22:45;7.03;;;1.83;;
68886;SDS011;55925;51.764;6.402;2023-05-29T10:25:11;10.75;;;2.47;;
68886;SDS011;55925;51.764;6.402;2023-05-29T10:27:39;10.23;;;2.22;;
68886;SDS011;55925;51.764;6.402;2023-05-29T10:30:21;11.95;;;2.53;;
68886;SDS011;55925;51.764;6.402;2023-05-29T10:35:22;10.63;;;2.85;;
68886;SDS011;55925;51.764;6.402;2023-05-29T10:38:02;7.75;;;1.77;;
68886;SDS011;55925;51.764;6.402;2023-05-29T10:40:34;7.72;;;1.85;;
68886;SDS011;55925;51.764;6.402;2023-05-29T10:43:00;8.63;;;1.88;;
68886;SDS011;55925;51.764;6.402;2023-05-29T10:50:37;8.52;;;2.40;;
68886;SDS011;55925;51.764;6.402;2023-05-29T10:53:06;6.80;;;2.20;;
68886;SDS011;55925;51.764;6.402;2023-05-29T10:55:36;7.18;;;2.38;;
68886;SDS011;55925;51.764;6.402;2023-05-29T10:58:09;10.05;;;2.70;;
68886;SDS011;55925;51.764;6.402;2023-05-29T11:00:39;8.90;;;2.33;;
68886;SDS011;55925;51.764;6.402;2023-05-29T11:03:07;11.38;;;2.40;;
68886;SDS011;55925;51.764;6.402;2023-05-29T11:05:33;9.38;;;2.33;;
68886;SDS011;55925;51.764;6.402;2023-05-29T11:08:00;6.25;;;2.28;;
68886;SDS011;55925;51.764;6.402;2023-05-29T11:13:24;11.48;;;2.33;;
68886;SDS011;55925;51.764;6.402;2023-05-29T11:18:43;8.65;;;2.42;;
68886;SDS011;55925;51.764;6.402;2023-05-29T11:21:19;9.52;;;2.40;;
68886;SDS011;55925;51.764;6.402;2023-05-29T11:23:50;10.77;;;2.50;;
68886;SDS011;55925;51.764;6.402;2023-05-29T11:26:16;8.07;;;2.55;;
68886;SDS011;55925;51.764;6.402;2023-05-29T11:28:43;9.60;;;2.17;;
68886;SDS011;55925;51.764;6.402;2023-05-29T11:31:09;8.45;;;2.30;;
68886;SDS011;55925;51.764;6.402;2023-05-29T11:33:41;8.40;;;2.53;;
68886;SDS011;55925;51.764;6.402;2023-05-29T11:36:12;9.20;;;2.78;;
68886;SDS011;55925;51.764;6.402;2023-05-29T11:38:39;9.45;;;2.55;;
68886;SDS011;55925;51.764;6.402;2023-05-29T11:41:06;8.05;;;2.33;;
68886;SDS011;55925;51.764;6.402;2023-05-29T11:43:32;8.25;;;2.63;;
68886;SDS011;55925;51.764;6.402;2023-05-29T11:45:58;11.65;;;2.83;;
68886;SDS011;55925;51.764;6.402;2023-05-29T11:48:24;8.93;;;2.15;;
68886;SDS011;55925;51.764;6.402;2023-05-29T11:50:50;7.13;;;2.40;;
68886;SDS011;55925;51.764;6.402;2023-05-29T11:53:16;10.35;;;2.40;;
68886;SDS011;55925;51.764;6.402;2023-05-29T11:55:43;7.78;;;2.50;;
68886;SDS011;55925;51.764;6.402;2023-05-29T11:58:09;8.63;;;2.40;;
68886;SDS011;55925;51.764;6.402;2023-05-29T12:00:36;9.13;;;2.30;;
68886;SDS011;55925;51.764;6.402;2023-05-29T12:03:02;8.23;;;2.10;;
68886;SDS011;55925;51.764;6.402;2023-05-29T12:05:29;10.05;;;2.30;;
68886;SDS011;55925;51.764;6.402;2023-05-29T12:07:56;8.98;;;2.10;;
68886;SDS011;55925;51.764;6.402;2023-05-29T12:10:22;8.85;;;2.20;;
68886;SDS011;55925;51.764;6.402;2023-05-29T12:12:52;8.23;;;2.28;;
68886;SDS011;55925;51.764;6.402;2023-05-29T12:15:18;9.45;;;2.35;;
68886;SDS011;55925;51.764;6.402;2023-05-29T12:17:46;13.00;;;2.65;;
68886;SDS011;55925;51.764;6.402;2023-05-29T12:20:13;8.10;;;2.53;;
68886;SDS011;55925;51.764;6.402;2023-05-29T12:22:40;8.20;;;2.55;;
68886;SDS011;55925;51.764;6.402;2023-05-29T12:25:09;10.13;;;2.50;;
68886;SDS011;55925;51.764;6.402;2023-05-29T12:27:40;7.72;;;2.20;;
68886;SDS011;55925;51.764;6.402;2023-05-29T12:30:11;8.60;;;2.63;;
68886;SDS011;55925;51.764;6.402;2023-05-29T12:32:40;9.63;;;2.17;;
68886;SDS011;55925;51.764;6.402;2023-05-29T12:35:25;9.40;;;2.63;;
68886;SDS011;55925;51.764;6.402;2023-05-29T12:42:48;9.90;;;2.33;;
68886;SDS011;55925;51.764;6.402;2023-05-29T12:45:14;10.15;;;2.20;;
68886;SDS011;55925;51.764;6.402;2023-05-29T12:47:53;8.15;;;2.10;;
68886;SDS011;55925;51.764;6.402;2023-05-29T12:52:52;8.63;;;2.33;;
68886;SDS011;55925;51.764;6.402;2023-05-29T12:55:18;10.27;;;2.67;;
68886;SDS011;55925;51.764;6.402;2023-05-29T12:57:44;8.60;;;2.50;;
68886;SDS011;55925;51.764;6.402;2023-05-29T13:00:11;9.07;;;2.63;;
68886;SDS011;55925;51.764;6.402;2023-05-29T13:02:37;9.30;;;2.22;;
68886;SDS011;55925;51.764;6.402;2023-05-29T13:05:04;7.97;;;2.50;;
68886;SDS011;55925;51.764;6.402;2023-05-29T13:07:31;7.13;;;2.20;;
68886;SDS011;55925;51.764;6.402;2023-05-29T13:09:57;11.00;;;2.53;;
68886;SDS011;55925;51.764;6.402;2023-05-29T13:12:23;9.23;;;2.40;;
68886;SDS011;55925;51.764;6.402;2023-05-29T13:14:49;9.55;;;2.30;;
68886;SDS011;55925;51.764;6.402;2023-05-29T13:17:15;9.05;;;2.65;;
68886;SDS011;55925;51.764;6.402;2023-05-29T13:19:41;10.10;;;2.60;;
68886;SDS011;55925;51.764;6.402;2023-05-29T13:22:07;7.47;;;1.90;;
68886;SDS011;55925;51.764;6.402;2023-05-29T13:24:33;12.00;;;2.88;;
68886;SDS011;55925;51.764;6.402;2023-05-29T13:26:59;7.15;;;2.25;;
68886;SDS011;55925;51.764;6.402;2023-05-29T13:29:25;11.65;;;2.80;;
68886;SDS011;55925;51.764;6.402;2023-05-29T13:31:51;6.22;;;2.25;;
68886;SDS011;55925;51.764;6.402;2023-05-29T13:34:17;9.10;;;2.95;;
68886;SDS011;55925;51.764;6.402;2023-05-29T13:36:43;11.65;;;3.28;;
68886;SDS011;55925;51.764;6.402;2023-05-29T13:39:10;7.43;;;2.20;;
68886;SDS011;55925;51.764;6.402;2023-05-29T13:41:36;7.63;;;2.78;;
68886;SDS011;55925;51.764;6.402;2023-05-29T13:44:02;8.35;;;2.67;;
68886;SDS011;55925;51.764;6.402;2023-05-29T13:46:29;9.88;;;2.45;;
68886;SDS011;55925;51.764;6.402;2023-05-29T13:48:55;11.45;;;2.80;;
68886;SDS011;55925;51.764;6.402;2023-05-29T13:51:21;6.85;;;2.40;;
68886;SDS011;55925;51.764;6.402;2023-05-29T13:53:47;8.25;;;2.35;;
68886;SDS011;55925;51.764;6.402;2023-05-29T13:56:13;10.80;;;2.85;;
68886;SDS011;55925;51.764;6.402;2023-05-29T13:58:39;7.00;;;2.05;;
68886;SDS011;55925;51.764;6.402;2023-05-29T14:01:05;8.48;;;2.83;;
68886;SDS011;55925;51.764;6.402;2023-05-29T14:03:31;13.60;;;3.25;;
68886;SDS011;55925;51.764;6.402;2023-05-29T14:05:57;10.38;;;2.42;;
68886;SDS011;55925;51.764;6.402;2023-05-29T14:08:23;10.10;;;2.50;;
68886;SDS011;55925;51.764;6.402;2023-05-29T14:10:49;8.32;;;2.55;;
68886;SDS011;55925;51.764;6.402;2023-05-29T14:13:16;7.38;;;2.50;;
68886;SDS011;55925;51.764;6.402;2023-05-29T14:15:42;10.13;;;2.75;;
68886;SDS011;55925;51.764;6.402;2023-05-29T14:18:08;10.40;;;2.67;;
68886;SDS011;55925;51.764;6.402;2023-05-29T14:20:34;5.63;;;2.00;;
68886;SDS011;55925;51.764;6.402;2023-05-29T14:23:00;8.68;;;2.50;;
68886;SDS011;55925;51.764;6.402;2023-05-29T14:25:26;7.97;;;2.40;;
68886;SDS011;55925;51.764;6.402;2023-05-29T14:27:52;10.70;;;2.50;;
68886;SDS011;55925;51.764;6.402;2023-05-29T14:30:18;6.65;;;2.03;;
68886;SDS011;55925;51.764;6.402;2023-05-29T14:32:44;16.65;;;2.83;;
68886;SDS011;55925;51.764;6.402;2023-05-29T14:35:10;9.55;;;2.60;;
68886;SDS011;55925;51.764;6.402;2023-05-29T14:37:36;8.43;;;2.58;;
68886;SDS011;55925;51.764;6.402;2023-05-29T14:40:02;8.35;;;2.47;;
68886;SDS011;55925;51.764;6.402;2023-05-29T14:42:28;11.45;;;2.47;;
68886;SDS011;55925;51.764;6.402;2023-05-29T14:44:55;9.00;;;2.25;;
68886;SDS011;55925;51.764;6.402;2023-05-29T14:47:21;6.93;;;2.10;;
68886;SDS011;55925;51.764;6.402;2023-05-29T14:49:47;8.32;;;2.22;;
68886;SDS011;55925;51.764;6.402;2023-05-29T14:52:13;9.50;;;2.33;;
68886;SDS011;55925;51.764;6.402;2023-05-29T14:54:39;9.02;;;2.58;;
68886;SDS011;55925;51.764;6.402;2023-05-29T14:57:05;8.90;;;2.20;;
68886;SDS011;55925;51.764;6.402;2023-05-29T14:59:31;9.55;;;2.13;;
68886;SDS011;55925;51.764;6.402;2023-05-29T15:01:57;11.20;;;2.78;;
68886;SDS011;55925;51.764;6.402;2023-05-29T15:04:25;8.85;;;2.60;;
68886;SDS011;55925;51.764;6.402;2023-05-29T15:06:51;9.93;;;2.00;;
68886;SDS011;55925;51.764;6.402;2023-05-29T15:09:18;7.88;;;2.10;;
68886;SDS011;55925;51.764;6.402;2023-05-29T15:11:46;10.68;;;2.58;;
68886;SDS011;55925;51.764;6.402;2023-05-29T15:14:12;11.43;;;2.58;;